This is the latest recevied weather packets stored in our database for station/object KF7SOJ. If no packets are shown the sender has not sent any weather packets the latest 10 day(s).
| Time | Temp. | Humidity | Pressure | Rain* | Wind** | Luminosity | Snow |
|---|---|---|---|---|---|---|---|
| 1778013435 | 8.89° C | 35% | 933.2 hPa | 0 mm | - | 1002 W/m² | - |
| 1778013132 | 8.89° C | 35% | 933.1 hPa | 0 mm | - | 1002 W/m² | - |
| 1778012828 | 10° C | 34% | 933 hPa | 0 mm | - | 1066 W/m² | - |
| 1778012524 | 10° C | 34% | 932.9 hPa | 0 mm | - | 1066 W/m² | - |
| 1778012220 | 8.33° C | 38% | 933 hPa | 0 mm | - | 1081 W/m² | - |
| 1778011919 | 8.89° C | 35% | 933.3 hPa | 0 mm | - | 238 W/m² | - |
| 1778011617 | 10° C | 35% | 933.2 hPa | 0 mm | - | 1162 W/m² | - |
| 1778011313 | 9.44° C | 33% | 932.9 hPa | 0 mm | - | 1038 W/m² | - |
| 1778011009 | 8.89° C | 37% | 933.1 hPa | 0 mm | - | 981 W/m² | - |
| 1778010707 | 9.44° C | 34% | 933.1 hPa | 0 mm | - | 255 W/m² | - |
| 1778010404 | 9.44° C | 37% | 933.1 hPa | 0 mm | - | 1039 W/m² | - |
| 1778010100 | 9.44° C | 34% | 933 hPa | 0 mm | - | 1095 W/m² | - |
| 1778009796 | 9.44° C | 36% | 933 hPa | 0 mm | - | 1095 W/m² | - |
| 1778009493 | 10° C | 34% | 932.9 hPa | 0 mm | - | 1152 W/m² | - |
| 1778009192 | 10° C | 33% | 933.1 hPa | 0 mm | - | 1156 W/m² | - |
| 1778008889 | 9.44° C | 34% | 933.1 hPa | 0 mm | - | 1123 W/m² | - |
| 1778008588 | 9.44° C | 36% | 933.1 hPa | 0 mm | - | 1031 W/m² | - |
| 1778008285 | 9.44° C | 36% | 933.2 hPa | 0 mm | - | 1014 W/m² | - |
| 1778007981 | 10° C | 35% | 933 hPa | 0 mm | - | 352 W/m² | - |
| 1778007676 | 8.89° C | 34% | 933 hPa | 0 mm | - | 393 W/m² | - |
| 1778007373 | 8.33° C | 38% | 933.1 hPa | 0 mm | - | 1156 W/m² | - |
| 1778007069 | 8.89° C | 36% | 933.2 hPa | 0 mm | - | 326 W/m² | - |
| 1778006766 | 8.33° C | 39% | 933.3 hPa | 0 mm | - | 333 W/m² | - |
| 1778006463 | 8.33° C | 39% | 933.3 hPa | 0 mm | - | 333 W/m² | - |
| 1778006159 | 7.78° C | 39% | 933.5 hPa | 0 mm | - | 317 W/m² | - |
* Rain latest hour (hover to see other rain measurements)
** Current wind speed in m/s (hover to see current wind gust speed)